Fort McCoy, FL (32134)

4:17 AM EST on February 06, 2016 (GMT -0500)
Yancey Blueberry | | Change Station
CLOSE
Current Station
Personal Weather Station
Location: Silver Springs, FL
Elevation: 84 ft
Nearby Weather Stations

Elev 84 ft 29.19 °N, 81.96 °W | Updated 22 seconds ago

Partly Cloudy
Partly Cloudy
42.0 °F
Feels Like 42 °F
N
1.0
Wind Variable Wind from ESE
Gusts 2.0 mph

Today
High -- | Low -- °F
--% Chance of Precip.
Yesterday
High -- | Low -- °F
Precip. -- in
Pressure 30.22 in
Visibility 10.0 miles
Clouds Clear
Windchill 42 °F
Dew Point 40 °F
Humidity 91%
Rainfall 0.00 in
Snow Depth Not available.
7:13 AM 6:09 PM
Waning Crescent, 6% visible
METAR KOCF 060915Z AUTO 01007KT 10SM CLR 08/02 A3022 RMK AO1
Pressure 30.22 in
Visibility 10.0 miles
Clouds Clear
Windchill 42 °F
Dew Point 40 °F
Humidity 91%
Rainfall 0.00 in
Snow Depth Not available.
7:13 AM 6:09 PM
Waning Crescent, 6% visible
METAR KOCF 060915Z AUTO 01007KT 10SM CLR 08/02 A3022 RMK AO1

10-Day Weather Forecast

Almanac

Astronomy

Feb. 06, 2016 Rise Set
Actual Time
Civil Twilight
Nautical Twilight
Astronomical Twilight
Moon
Length of Visible Light
Length of Day
Tomorrow will be .
, % of the Moon is Illuminated

Today's Extremes

State Highs State Lows

Community

WunderPhotos

Upload Photos

1,890,933 photos uploaded!

WunderBlog® & News

Nearby

Air Quality

  Air Quality AQ Index Pollutant
Not available.

Snow Depth

Station Depth Elevation

Earthquake Activity

City Distance Mag. Time & Date
Minimum magnitude displayed is 2.5.

Coastal Water Temperatures

Place Temperature

Stations

Nearby Weather Stations

Station Location Temp. Windchill Dew Point Humidity Wind Precip. Elev Updated Type
                   

Watches & Warnings

There are currently no watches in effect.